Time;durP1;ratioP1;P1;durP2;ratioP2;P2;SDS_P1;SDS_P2;PMS_P1;PMS_P2;Temp;Humidity;BMP_temperature;BMP_pressure;BME280_temperature;BME280_humidity;BME280_pressure;Samples;Min_cycle;Max_cycle;Signal;HPM_P1;HPM_P2
2023/05/13 00:01:40;;;;;;;3.93;1.50;;;;;;;9.46;82.23;63931.84;5052932;28;20646;-55
2023/05/13 00:04:05;;;;;;;1.50;1.40;;;;;;;9.51;80.42;63940.41;5070966;28;20243;-55
2023/05/13 00:06:31;;;;;;;3.93;1.53;;;;;;;9.50;81.11;63936.78;5070802;28;20649;-55
2023/05/13 00:09:00;;;;;;;2.17;1.50;;;;;;;9.40;80.71;63923.31;5070658;28;20723;-55
2023/05/13 00:11:25;;;;;;;3.07;1.47;;;;;;;9.26;79.57;63911.09;5070768;28;20185;-57
2023/05/13 00:13:51;;;;;;;2.70;1.60;;;;;;;9.36;77.49;63923.97;5070931;28;20216;-55
2023/05/13 00:16:16;;;;;;;4.33;1.97;;;;;;;9.39;76.98;63924.75;5070567;28;20192;-55
2023/05/13 00:18:42;;;;;;;3.63;1.30;;;;;;;9.40;77.13;63925.28;5070886;28;20278;-55
2023/05/13 00:21:08;;;;;;;1.30;1.20;;;;;;;9.40;77.25;63928.34;5070617;28;20204;-56
2023/05/13 00:23:33;;;;;;;3.90;1.50;;;;;;;9.33;77.91;63918.72;5069948;28;20216;-57
2023/05/13 00:26:00;;;;;;;2.23;1.73;;;;;;;9.40;78.94;63925.28;5070690;28;20185;-56
2023/05/13 00:28:32;;;;;;;4.50;1.53;;;;;;;9.38;75.79;63926.16;5070547;28;20683;-56
2023/05/13 00:30:57;;;;;;;3.43;1.30;;;;;;;9.33;77.14;63916.22;5070707;28;20217;-55
2023/05/13 00:33:22;;;;;;;1.53;1.33;;;;;;;9.38;78.14;63923.66;5070470;28;20689;-57
2023/05/13 00:35:48;;;;;;;1.57;1.47;;;;;;;9.45;77.04;63931.31;5070453;28;20268;-58
2023/05/13 00:38:13;;;;;;;2.90;1.53;;;;;;;9.52;75.84;63938.97;5070712;28;20212;-58
2023/05/13 00:40:39;;;;;;;5.87;1.80;;;;;;;9.51;78.26;63935.38;5070442;28;20180;-58
2023/05/13 00:43:05;;;;;;;3.73;1.60;;;;;;;9.66;75.65;63954.28;5070673;28;20291;-58
2023/05/13 00:45:31;;;;;;;2.00;1.40;;;;;;;9.70;77.58;63960.59;5070292;28;20184;-57
2023/05/13 00:47:57;;;;;;;3.33;1.30;;;;;;;9.57;80.56;63941.94;5070282;28;20181;-57
2023/05/13 00:50:23;;;;;;;1.60;1.50;;;;;;;9.55;81.72;63939.75;5070098;28;20216;-55
2023/05/13 00:52:50;;;;;;;3.20;1.50;;;;;;;9.66;76.55;63951.75;5070112;28;20188;-55
2023/05/13 00:55:16;;;;;;;1.50;1.40;;;;;;;9.64;78.54;63952.09;5070056;28;20197;-56
2023/05/13 00:57:41;;;;;;;1.70;1.37;;;;;;;9.66;78.33;63951.19;5070016;28;20196;-55
2023/05/13 01:00:08;;;;;;;3.77;1.60;;;;;;;9.79;75.12;63968.50;5070162;28;20216;-54
2023/05/13 01:03:00;;;;;;;2.40;1.47;;;;;;;9.74;73.03;63963.00;5070358;28;20201;-55
2023/05/13 01:05:58;;;;;;;2.33;1.23;;;;;;;9.68;72.62;63955.91;5069981;28;20231;-55
2023/05/13 01:08:28;;;;;;;2.33;1.50;;;;;;;9.53;72.54;63937.56;5070051;28;20224;-56
2023/05/13 01:11:02;;;;;;;2.63;1.50;;;;;;;9.67;73.35;63957.34;5069138;28;20188;-56
2023/05/13 01:13:35;;;;;;;1.67;1.43;;;;;;;9.56;71.12;63940.28;5068251;28;20225;-56
2023/05/13 01:16:17;;;;;;;1.50;1.40;;;;;;;9.56;73.24;63940.81;5068349;28;20180;-55
2023/05/13 01:18:47;;;;;;;1.70;1.60;;;;;;;9.53;72.67;63940.06;5067966;28;20212;-55
2023/05/13 01:21:13;;;;;;;1.30;1.20;;;;;;;9.53;72.27;63937.00;5068339;28;20299;-57
2023/05/13 01:23:38;;;;;;;1.73;1.50;;;;;;;9.47;73.35;63930.44;5070440;28;20209;-54
2023/05/13 01:26:03;;;;;;;2.23;1.53;;;;;;;9.50;71.42;63933.72;5069622;28;20571;-55
2023/05/13 01:28:29;;;;;;;1.40;1.30;;;;;;;9.46;70.94;63931.84;5069955;28;20211;-56
2023/05/13 01:30:56;;;;;;;3.37;1.70;;;;;;;9.36;70.95;63921.47;5069915;28;20681;-55
2023/05/13 01:33:22;;;;;;;5.10;1.37;;;;;;;9.39;72.37;63927.28;5070466;28;20213;-57
2023/05/13 01:35:48;;;;;;;1.47;1.20;;;;;;;9.40;69.97;63925.28;5073462;28;20185;-58
2023/05/13 01:38:14;;;;;;;2.43;1.50;;;;;;;9.43;70.42;63931.66;5073226;28;20212;-58
2023/05/13 01:40:41;;;;;;;1.63;1.43;;;;;;;9.46;69.49;63932.41;5073234;28;20654;-59
2023/05/13 01:43:07;;;;;;;1.47;1.10;;;;;;;9.41;68.07;63926.94;5073392;28;20223;-58
2023/05/13 01:45:32;;;;;;;2.23;1.30;;;;;;;9.44;69.16;63932.72;5073128;28;20184;-59
2023/05/13 01:47:58;;;;;;;1.47;1.37;;;;;;;9.40;68.95;63923.31;5073226;28;20238;-57
2023/05/13 01:50:25;;;;;;;1.97;0.77;;;;;;;9.35;69.44;63922.34;5072961;28;20286;-58
2023/05/13 01:52:50;;;;;;;1.67;1.20;;;;;;;9.35;69.48;63920.38;5073215;28;20197;-56
2023/05/13 01:55:16;;;;;;;2.07;1.57;;;;;;;9.36;70.16;63923.97;5072823;28;20202;-56
2023/05/13 01:57:41;;;;;;;5.33;1.83;;;;;;;9.42;70.45;63928.03;5072910;28;20203;-56
2023/05/13 02:00:07;;;;;;;4.57;1.50;;;;;;;9.52;71.06;63941.47;5072844;28;20658;-57
2023/05/13 02:02:32;;;;;;;1.17;1.07;;;;;;;9.53;70.84;63942.59;5072966;28;20197;-56
2023/05/13 02:04:58;;;;;;;1.50;1.23;;;;;;;9.55;71.07;63942.25;5072806;28;20204;-57
2023/05/13 02:07:23;;;;;;;1.50;1.40;;;;;;;9.59;71.41;63944.09;5072858;28;20192;-54
2023/05/13 02:09:49;;;;;;;2.67;1.50;;;;;;;9.43;73.52;63931.09;5072640;28;20243;-55
2023/05/13 02:12:15;;;;;;;2.10;1.67;;;;;;;9.50;72.28;63938.75;5072662;28;20198;-54
2023/05/13 02:14:40;;;;;;;2.67;1.70;;;;;;;9.50;74.47;63939.28;5072848;28;20208;-56
2023/05/13 02:17:05;;;;;;;4.10;2.10;;;;;;;9.51;72.31;63940.41;5072651;28;20196;-58
2023/05/13 02:19:31;;;;;;;1.57;1.40;;;;;;;9.26;72.82;63913.06;5072731;28;20650;-55
2023/05/13 02:21:56;;;;;;;2.57;1.30;;;;;;;9.22;71.40;63906.16;5072389;28;20200;-57
2023/05/13 02:24:22;;;;;;;2.97;1.53;;;;;;;9.17;72.50;63900.72;5072154;28;20212;-55
2023/05/13 02:26:48;;;;;;;3.70;1.57;;;;;;;9.17;71.58;63903.22;5072374;28;20192;-57
2023/05/13 02:29:13;;;;;;;2.07;1.70;;;;;;;9.13;72.38;63898.84;5072624;28;20346;-54
2023/05/13 02:31:40;;;;;;;2.33;1.50;;;;;;;9.18;72.15;63901.78;5072360;28;20263;-56
2023/05/13 02:34:05;;;;;;;3.13;1.90;;;;;;;9.14;72.17;63899.94;5072625;28;20266;-55
2023/05/13 02:36:31;;;;;;;1.50;1.40;;;;;;;9.14;72.21;63897.41;5072362;28;20188;-56
2023/05/13 02:38:56;;;;;;;1.80;1.57;;;;;;;9.11;72.87;63894.16;5072490;28;20213;-61
2023/05/13 02:41:21;;;;;;;2.57;1.47;;;;;;;9.12;72.81;63897.75;5072102;28;20268;-55
2023/05/13 02:43:47;;;;;;;2.07;1.60;;;;;;;9.21;73.86;63908.13;5072132;28;20270;-56
2023/05/13 02:46:13;;;;;;;3.43;1.33;;;;;;;9.26;73.25;63913.06;5052920;28;20678;-55
2023/05/13 02:48:38;;;;;;;4.37;2.03;;;;;;;9.25;74.01;63910.00;5071961;28;20242;-55
2023/05/13 02:51:03;;;;;;;1.77;1.37;;;;;;;9.32;73.38;63919.63;5072026;28;20197;-56
2023/05/13 02:53:29;;;;;;;2.40;1.80;;;;;;;9.28;73.18;63913.28;5072128;28;20648;-57
2023/05/13 02:55:55;;;;;;;2.20;1.80;;;;;;;9.33;72.02;63918.72;5071914;28;20188;-56
2023/05/13 02:58:20;;;;;;;2.93;2.33;;;;;;;9.14;72.62;63897.97;5072154;28;20573;-55
2023/05/13 03:00:45;;;;;;;5.00;2.13;;;;;;;9.15;72.36;63901.56;5071990;28;20183;-55
2023/05/13 03:03:11;;;;;;;1.60;1.50;;;;;;;9.14;73.89;63897.97;5072074;28;20756;-56
2023/05/13 03:05:36;;;;;;;1.77;1.50;;;;;;;9.11;74.42;63896.66;5071985;28;20367;-56
2023/05/13 03:08:01;;;;;;;1.83;1.70;;;;;;;9.09;74.51;63895.00;5080731;22;20209;-54
2023/05/13 03:10:27;;;;;;;2.50;1.77;;;;;;;8.89;75.39;63870.09;5091899;28;20234;-56
2023/05/13 03:12:53;;;;;;;1.53;1.43;;;;;;;9.04;76.70;63886.50;5092035;28;20216;-54
2023/05/13 03:15:18;;;;;;;1.87;1.67;;;;;;;9.03;77.15;63885.94;5092035;28;20185;-55
2023/05/13 03:17:44;;;;;;;3.17;1.77;;;;;;;9.05;78.03;63890.13;5091793;28;20191;-55
2023/05/13 03:20:10;;;;;;;5.03;2.20;;;;;;;9.08;79.61;63888.91;5092116;28;20188;-54
2023/05/13 03:22:39;;;;;;;2.10;1.90;;;;;;;9.07;79.75;63892.28;5091935;28;20188;-57
2023/05/13 03:25:05;;;;;;;3.00;2.17;;;;;;;8.97;79.90;63881.34;5091809;28;20212;-58
2023/05/13 03:27:31;;;;;;;2.97;2.10;;;;;;;9.10;82.24;63893.59;5073907;28;20287;-59
2023/05/13 03:29:56;;;;;;;3.13;1.83;;;;;;;9.32;80.55;63920.16;5091639;28;20736;-59
2023/05/13 03:32:24;;;;;;;2.20;2.00;;;;;;;9.33;80.77;63918.19;5091884;28;20184;-64
2023/05/13 03:34:50;;;;;;;2.50;1.90;;;;;;;9.40;80.61;63925.84;5091584;28;20280;-55
2023/05/13 03:37:16;;;;;;;3.97;2.30;;;;;;;9.48;80.21;63934.03;5091608;28;20188;-61
2023/05/13 03:39:41;;;;;;;10.63;6.33;;;;;;;9.54;82.14;63940.59;5091529;28;20598;-58
2023/05/13 03:42:06;;;;;;;3.37;2.80;;;;;;;9.54;81.82;63943.66;5091457;28;20667;-59
2023/05/13 03:44:32;;;;;;;3.63;2.10;;;;;;;9.62;81.22;63949.91;5091653;28;20240;-59
2023/05/13 03:46:57;;;;;;;6.47;4.37;;;;;;;9.72;80.57;63960.84;5091492;28;20293;-57
2023/05/13 03:49:23;;;;;;;4.13;2.00;;;;;;;9.67;79.87;63955.38;5091117;28;20252;-55
2023/05/13 03:51:48;;;;;;;2.17;1.70;;;;;;;9.58;79.52;63947.50;5091424;28;20669;-55
2023/05/13 03:54:13;;;;;;;7.40;3.20;;;;;;;9.48;79.55;63934.03;5091499;28;20214;-56
2023/05/13 03:56:39;;;;;;;3.67;1.83;;;;;;;9.45;79.69;63933.84;5073198;28;20196;-60
2023/05/13 03:59:04;;;;;;;2.63;1.80;;;;;;;9.42;80.78;63930.00;5091412;28;20282;-58
2023/05/13 04:01:29;;;;;;;5.70;2.27;;;;;;;9.51;80.53;63940.41;5091252;28;20252;-62
2023/05/13 04:03:55;;;;;;;6.53;3.47;;;;;;;9.68;81.81;63953.38;5091047;28;20583;-58
2023/05/13 04:06:20;;;;;;;6.00;3.27;;;;;;;9.71;81.62;63962.25;5091236;28;20655;-64
2023/05/13 04:08:46;;;;;;;4.30;2.17;;;;;;;9.74;83.10;63963.00;5091237;28;20315;-58
2023/05/13 04:11:11;;;;;;;9.50;3.30;;;;;;;9.86;82.04;63976.16;5091010;28;20231;-59
2023/05/13 04:13:36;;;;;;;7.97;4.93;;;;;;;9.79;81.92;63971.00;5091383;28;20727;-58
2023/05/13 04:16:02;;;;;;;6.07;3.20;;;;;;;9.83;80.64;63972.88;5090901;28;20196;-58
2023/05/13 04:18:32;;;;;;;2.57;2.37;;;;;;;9.91;77.44;63981.06;5091109;28;20280;-58
2023/05/13 04:20:57;;;;;;;2.83;2.17;;;;;;;9.88;76.49;63978.31;5090749;28;20278;-59
2023/05/13 04:23:23;;;;;;;3.70;2.43;;;;;;;9.86;78.27;63975.59;5090657;28;20231;-58
2023/05/13 04:25:51;;;;;;;3.73;2.27;;;;;;;9.89;77.77;63981.41;5090859;28;20564;-58
2023/05/13 04:28:17;;;;;;;5.53;2.17;;;;;;;9.99;78.62;63989.81;5090835;28;20294;-63
2023/05/13 04:30:43;;;;;;;5.50;2.17;;;;;;;9.88;77.97;63975.25;5090604;28;20568;-59
2023/05/13 04:33:08;;;;;;;7.27;2.50;;;;;;;9.91;77.86;63984.13;5090778;28;20212;-59
2023/05/13 04:35:34;;;;;;;5.30;2.10;;;;;;;9.96;80.00;63986.53;5090514;28;20214;-58
2023/05/13 04:37:59;;;;;;;3.03;2.20;;;;;;;9.91;80.93;63981.63;5072542;28;20658;-57
2023/05/13 04:40:25;;;;;;;4.30;2.00;;;;;;;10.18;79.21;64010.09;5090598;28;20184;-58
2023/05/13 04:42:53;;;;;;;2.73;2.07;;;;;;;10.45;77.97;64037.09;5090580;28;20242;-58
2023/05/13 04:45:19;;;;;;;3.90;2.50;;;;;;;10.69;75.22;64068.97;5090454;28;20735;-58
2023/05/13 04:47:45;;;;;;;4.53;2.33;;;;;;;10.69;74.34;64065.88;5090403;28;20192;-59
2023/05/13 04:50:10;;;;;;;3.47;2.10;;;;;;;10.94;74.17;64095.78;5090344;28;20281;-55
2023/05/13 04:52:36;;;;;;;4.03;2.30;;;;;;;11.01;74.87;64103.44;5090698;28;20196;-56
2023/05/13 04:55:01;;;;;;;3.03;2.10;;;;;;;10.88;75.65;64087.25;5090225;28;20685;-56
2023/05/13 04:57:27;;;;;;;3.73;2.40;;;;;;;10.80;76.11;64078.50;5090413;28;20188;-55
2023/05/13 04:59:52;;;;;;;5.17;2.60;;;;;;;11.01;76.38;64100.38;5072372;28;20219;-56
2023/05/13 05:02:17;;;;;;;2.87;2.13;;;;;;;11.27;73.98;64129.41;5090592;28;20272;-57
2023/05/13 05:04:43;;;;;;;4.60;2.27;;;;;;;11.15;75.60;64116.25;5090328;28;20211;-59
2023/05/13 05:07:09;;;;;;;2.90;2.17;;;;;;;11.25;73.87;64127.19;5090422;28;20188;-60
2023/05/13 05:09:34;;;;;;;3.33;2.50;;;;;;;11.34;73.55;64139.59;5092571;28;20603;-59
2023/05/13 05:12:00;;;;;;;2.77;2.40;;;;;;;11.35;74.88;64135.09;5093815;28;20673;-59
2023/05/13 05:14:25;;;;;;;5.60;2.97;;;;;;;11.12;77.02;64112.97;5093712;28;20257;-58
2023/05/13 05:16:50;;;;;;;6.30;3.40;;;;;;;11.25;77.26;64126.66;5093879;28;20184;-62
2023/05/13 05:19:16;;;;;;;5.87;3.03;;;;;;;11.13;78.89;64116.06;5094112;28;20219;-58
2023/05/13 05:21:41;;;;;;;4.70;3.57;;;;;;;10.94;79.74;64093.81;5093843;28;20196;-59
2023/05/13 05:24:07;;;;;;;11.77;4.83;;;;;;;10.74;80.20;64071.38;5093852;28;20223;-58
2023/05/13 05:26:32;;;;;;;4.60;3.23;;;;;;;10.96;80.67;64096.00;5093814;28;20291;-60
2023/05/13 05:28:58;;;;;;;4.00;3.50;;;;;;;11.25;77.19;64127.19;5093765;28;20238;-59
2023/05/13 05:31:25;;;;;;;8.27;3.73;;;;;;;11.17;76.89;64120.97;5093648;28;20207;-60
2023/05/13 05:33:51;;;;;;;5.00;3.50;;;;;;;11.07;78.95;64110.00;5093506;28;20213;-57
2023/05/13 05:36:17;;;;;;;6.07;3.67;;;;;;;10.93;78.93;64090.19;5093484;28;20196;-57
2023/05/13 05:38:42;;;;;;;4.93;3.87;;;;;;;10.93;78.74;64089.63;5093693;28;20208;-60
2023/05/13 05:41:08;;;;;;;5.33;3.87;;;;;;;10.77;79.10;64074.66;5093513;28;20196;-59
2023/05/13 05:43:34;;;;;;;8.07;4.63;;;;;;;11.06;77.86;64105.84;5093379;28;20211;-59
2023/05/13 05:45:59;;;;;;;5.27;4.17;;;;;;;11.01;78.64;64103.44;5093440;28;20638;-59
2023/05/13 05:48:25;;;;;;;4.53;3.67;;;;;;;11.46;75.96;64150.22;5093495;28;20219;-59
2023/05/13 05:50:50;;;;;;;6.23;3.40;;;;;;;11.33;76.89;64138.50;5093374;28;20184;-59
2023/05/13 05:53:16;;;;;;;4.90;3.60;;;;;;;11.28;77.88;64133.03;5093244;28;20751;-61
2023/05/13 05:55:41;;;;;;;4.80;3.63;;;;;;;11.43;75.30;64149.44;5093288;28;20196;-61
2023/05/13 05:58:13;;;;;;;4.17;3.20;;;;;;;11.47;76.38;64153.81;5093530;28;20212;-59
2023/05/13 06:00:38;;;;;;;7.73;4.43;;;;;;;11.69;76.25;64177.41;5075090;28;20192;-59
2023/05/13 06:03:04;;;;;;;6.80;3.60;;;;;;;11.63;76.98;64168.84;5093506;28;20303;-59
2023/05/13 06:05:29;;;;;;;7.90;4.00;;;;;;;11.88;75.72;64195.16;5093219;28;20568;-59
2023/05/13 06:07:55;;;;;;;7.30;4.00;;;;;;;11.86;75.69;64192.97;5093204;28;20188;-60
2023/05/13 06:10:20;;;;;;;6.13;4.03;;;;;;;11.96;75.47;64201.94;5093017;28;20207;-59
2023/05/13 06:12:46;;;;;;;6.27;3.50;;;;;;;11.95;74.95;64200.31;5093024;28;20223;-60
2023/05/13 06:15:11;;;;;;;6.70;4.10;;;;;;;11.97;74.79;64205.03;5093188;28;20215;-63
2023/05/13 06:17:37;;;;;;;6.77;3.70;;;;;;;11.98;74.47;64208.66;5093255;28;20195;-60
2023/05/13 06:20:03;;;;;;;5.43;3.67;;;;;;;12.21;74.18;64229.38;5092916;28;20208;-61
2023/05/13 06:22:28;;;;;;;7.50;4.27;;;;;;;12.08;74.55;64214.56;5092886;28;20548;-63
2023/05/13 06:24:55;;;;;;;6.13;3.40;;;;;;;12.44;73.57;64257.09;5092791;28;20246;-60
2023/05/13 06:27:20;;;;;;;5.43;3.73;;;;;;;12.29;74.91;64242.63;5092626;28;20199;-59
2023/05/13 06:29:52;;;;;;;4.87;3.40;;;;;;;12.30;72.77;64238.69;5092647;28;20208;-57
2023/05/13 06:32:17;;;;;;;5.47;2.97;;;;;;;12.26;70.82;64236.81;5092752;28;20176;-57
2023/05/13 06:34:46;;;;;;;8.27;3.47;;;;;;;12.54;71.37;64270.59;5092420;28;20750;-57
2023/05/13 06:37:15;;;;;;;4.63;3.60;;;;;;;12.66;70.65;64283.75;5090903;28;20188;-56
2023/05/13 06:39:40;;;;;;;6.43;3.80;;;;;;;12.63;71.31;64277.38;5092292;28;20223;-56
2023/05/13 06:42:05;;;;;;;6.00;3.10;;;;;;;12.89;70.04;64303.38;5092316;28;20338;-56
2023/05/13 06:44:31;;;;;;;6.03;3.40;;;;;;;13.30;68.43;64350.94;5092181;28;20216;-56
2023/05/13 06:46:56;;;;;;;7.70;3.70;;;;;;;13.07;67.43;64327.69;5092131;28;20180;-56
2023/05/13 06:49:23;;;;;;;6.27;3.40;;;;;;;13.00;68.10;64315.47;5092122;28;20231;-57
2023/05/13 06:51:49;;;;;;;5.57;2.80;;;;;;;13.24;63.67;64343.78;5092227;28;20188;-58
2023/05/13 06:54:15;;;;;;;4.87;3.10;;;;;;;13.44;63.58;64366.28;5074068;28;20287;-58
2023/05/13 06:56:41;;;;;;;7.00;3.03;;;;;;;13.50;63.09;64372.34;5092287;28;20722;-57
2023/05/13 06:59:06;;;;;;;4.93;3.70;;;;;;;13.70;63.24;64391.75;5091909;28;20210;-57
2023/05/13 07:01:32;;;;;;;10.50;3.80;;;;;;;13.94;62.30;64417.56;5091789;28;20644;-57
2023/05/13 07:03:57;;;;;;;5.13;2.80;;;;;;;14.04;61.53;64428.53;5091847;28;20215;-57
2023/05/13 07:06:22;;;;;;;4.47;3.00;;;;;;;13.39;61.46;64358.28;5092044;28;20544;-57
2023/05/13 07:08:48;;;;;;;4.85;3.17;;;;;;;13.51;61.13;64370.34;5091802;28;20265;-57
2023/05/13 07:11:13;;;;;;;4.43;2.97;;;;;;;13.62;61.57;64385.50;5091629;28;20271;-58
2023/05/13 07:13:39;;;;;;;5.25;2.85;;;;;;;13.80;60.04;64404.72;5090539;28;20680;-57
2023/05/13 07:16:04;;;;;;;4.68;2.65;;;;;;;14.01;59.13;64428.34;5091673;28;20259;-56
2023/05/13 07:18:30;;;;;;;4.03;2.93;;;;;;;14.01;58.32;64425.81;5091775;28;20246;-56
2023/05/13 07:20:55;;;;;;;7.72;3.70;;;;;;;13.70;61.62;64396.25;5091861;28;20188;-59
2023/05/13 07:23:22;;;;;;;5.97;3.67;;;;;;;13.30;62.24;64348.41;5091782;28;20236;-56
2023/05/13 07:25:48;;;;;;;6.97;3.80;;;;;;;13.67;63.71;64387.91;5091641;28;20187;-57
2023/05/13 07:28:14;;;;;;;4.47;2.90;;;;;;;13.47;62.76;64367.03;5091236;28;20254;-61
2023/05/13 07:30:40;;;;;;;6.10;3.90;;;;;;;13.13;63.27;64332.25;5091416;28;20251;-59
2023/05/13 07:33:06;;;;;;;6.07;3.90;;;;;;;13.30;64.64;64350.38;5091656;28;20200;-59
2023/05/13 07:35:31;;;;;;;4.50;2.80;;;;;;;13.49;61.81;64369.25;5090393;28;20356;-60
2023/05/13 07:37:56;;;;;;;6.53;3.23;;;;;;;14.06;77.90;64430.72;5091711;28;20180;-60
2023/05/13 07:40:22;;;;;;;5.90;2.93;;;;;;;14.09;62.93;64437.13;5091773;28;20192;-60
2023/05/13 07:42:47;;;;;;;4.20;3.17;;;;;;;14.11;63.03;64438.75;5091975;28;20634;-60
2023/05/13 07:45:13;;;;;;;7.70;4.93;;;;;;;14.14;61.29;64440.06;5090683;28;20282;-59
2023/05/13 07:47:38;;;;;;;5.20;3.70;;;;;;;14.22;60.84;64450.84;5092137;28;20208;-59
2023/05/13 07:50:05;;;;;;;5.50;2.78;;;;;;;14.24;59.79;64453.59;5091846;28;20249;-59
2023/05/13 07:52:31;;;;;;;4.75;4.18;;;;;;;14.20;59.68;64446.13;5092270;28;20191;-59
2023/05/13 07:54:56;;;;;;;7.10;3.20;;;;;;;14.62;57.79;64494.84;5091839;28;20208;-57
2023/05/13 07:57:23;;;;;;;10.13;4.37;;;;;;;15.83;76.38;64629.91;5091843;28;20510;-58
2023/05/13 07:59:48;;;;;;;6.28;4.53;;;;;;;16.80;60.33;64730.50;5091884;28;20204;-58
2023/05/13 08:02:14;;;;;;;5.95;3.83;;;;;;;16.10;58.25;64653.97;5091679;28;20192;-59
2023/05/13 08:04:40;;;;;;;6.63;4.50;;;;;;;15.65;59.43;64607.56;5091437;28;20589;-56
2023/05/13 08:07:05;;;;;;;4.95;3.90;;;;;;;14.83;64.08;64515.38;5091493;28;20267;-58
2023/05/13 08:09:31;;;;;;;8.60;4.03;;;;;;;14.75;64.23;64506.00;5091349;28;20636;-60
2023/05/13 08:11:56;;;;;;;5.85;4.45;;;;;;;14.95;63.79;64528.56;5091515;28;20180;-57
2023/05/13 08:14:22;;;;;;;4.65;3.33;;;;;;;14.66;65.49;64498.66;5091368;28;20604;-58
2023/05/13 08:16:48;;;;;;;8.43;6.03;;;;;;;14.66;64.39;64496.13;5091334;28;20191;-59
2023/05/13 08:19:14;;;;;;;7.80;4.32;;;;;;;14.38;64.00;64468.47;5091052;28;20215;-58
2023/05/13 08:21:40;;;;;;;7.88;4.03;;;;;;;14.37;64.71;64464.81;5091236;28;20621;-58
2023/05/13 08:24:06;;;;;;;8.65;5.20;;;;;;;14.51;64.30;64482.72;5091417;28;20249;-57
2023/05/13 08:26:32;;;;;;;10.63;5.25;;;;;;;14.30;62.78;64457.13;5091156;28;20196;-59
2023/05/13 08:28:58;;;;;;;8.55;4.85;;;;;;;14.05;64.15;64430.19;5091184;28;20215;-61
2023/05/13 08:31:24;;;;;;;6.18;4.65;;;;;;;13.78;64.11;64402.50;5073218;28;20196;-59
2023/05/13 08:33:50;;;;;;;7.20;4.93;;;;;;;14.33;64.54;64462.97;5090865;28;20697;-61
2023/05/13 08:36:16;;;;;;;6.70;4.70;;;;;;;14.43;62.35;64473.38;5090974;28;20298;-61
2023/05/13 08:38:42;;;;;;;5.93;4.40;;;;;;;14.33;65.33;64460.41;5091208;28;20242;-60
2023/05/13 08:41:13;;;;;;;6.95;3.78;;;;;;;14.39;68.67;64467.00;5090996;28;20188;-61
2023/05/13 08:43:39;;;;;;;8.05;4.20;;;;;;;14.50;67.10;64481.66;5090078;28;20211;-60
2023/05/13 08:46:08;;;;;;;7.30;4.53;;;;;;;14.59;68.36;64491.53;5089693;28;20284;-57
2023/05/13 08:48:34;;;;;;;6.13;4.23;;;;;;;14.69;69.79;64499.41;5091303;28;20701;-63
2023/05/13 08:51:01;;;;;;;6.93;4.63;;;;;;;14.99;69.09;64532.94;5091305;28;20199;-58
2023/05/13 08:53:27;;;;;;;9.13;5.00;;;;;;;15.10;65.05;64544.50;5091131;28;20750;-58
2023/05/13 08:55:53;;;;;;;5.80;4.45;;;;;;;15.14;66.45;64552.00;5090996;28;20192;-57
2023/05/13 08:58:19;;;;;;;8.05;4.82;;;;;;;15.40;68.48;64576.94;5091058;28;20206;-58
2023/05/13 09:00:47;;;;;;;6.13;4.70;;;;;;;15.32;64.97;64568.69;5090891;28;20188;-57
2023/05/13 09:03:13;;;;;;;8.68;5.53;;;;;;;15.27;66.80;64562.66;5089629;28;20287;-57
2023/05/13 09:05:40;;;;;;;7.97;4.10;;;;;;;15.56;68.73;64595.09;5090856;28;20194;-58
2023/05/13 09:08:08;;;;;;;8.00;4.63;;;;;;;15.76;69.91;64619.66;5090747;28;20207;-58
2023/05/13 09:10:35;;;;;;;9.88;6.80;;;;;;;15.79;65.75;64619.84;5090271;28;20269;-58
2023/05/13 09:13:00;;;;;;;7.43;4.00;;;;;;;16.07;66.40;64652.66;5090572;28;20228;-58
2023/05/13 09:15:27;;;;;;;13.57;6.90;;;;;;;16.17;62.44;64663.66;5090724;28;20301;-57
2023/05/13 09:17:55;;;;;;;6.47;4.47;;;;;;;16.34;61.60;64679.84;5090729;28;20669;-57
2023/05/13 09:20:21;;;;;;;8.13;4.20;;;;;;;16.35;60.73;64680.94;5090648;28;20611;-57
2023/05/13 09:22:49;;;;;;;6.63;4.40;;;;;;;16.17;62.42;64664.22;5090634;28;20253;-57
2023/05/13 09:25:16;;;;;;;6.65;4.32;;;;;;;16.59;66.54;64707.94;5090719;28;20196;-58
2023/05/13 09:27:45;;;;;;;5.68;4.25;;;;;;;16.68;60.37;64717.81;5090631;28;20184;-58
2023/05/13 09:30:10;;;;;;;8.52;4.70;;;;;;;16.80;64.12;64730.50;5089069;28;20720;-58
2023/05/13 09:32:43;;;;;;;8.75;5.13;;;;;;;16.73;61.23;64723.34;5090477;28;20180;-58
2023/05/13 09:35:17;;;;;;;6.68;4.93;;;;;;;17.06;62.79;64761.69;5090497;28;20207;-58
2023/05/13 09:37:46;;;;;;;4.93;4.10;;;;;;;17.22;61.09;64778.75;5090395;28;20227;-58
2023/05/13 09:40:16;;;;;;;5.63;4.38;;;;;;;17.44;60.58;64800.44;5090642;28;20249;-58
2023/05/13 09:42:43;;;;;;;5.15;4.03;;;;;;;17.89;62.55;64849.53;5090042;28;20180;-59
2023/05/13 09:45:10;;;;;;;9.48;4.70;;;;;;;18.33;64.06;64898.59;5090382;28;20211;-60
2023/05/13 09:47:36;;;;;;;7.43;4.30;;;;;;;18.20;59.27;64884.25;5090113;28;20184;-59
2023/05/13 09:50:03;;;;;;;8.15;5.38;;;;;;;18.12;57.43;64875.41;5088714;28;20223;-58
2023/05/13 09:52:33;;;;;;;6.50;3.92;;;;;;;18.17;57.06;64880.38;5090218;28;20180;-59
2023/05/13 09:54:59;;;;;;;7.97;4.80;;;;;;;18.38;55.41;64903.56;5091615;28;20239;-58
2023/05/13 09:57:28;;;;;;;7.18;4.30;;;;;;;18.20;55.73;64884.25;5093691;28;20277;-58
2023/05/13 10:00:02;;;;;;;6.45;4.55;;;;;;;18.03;57.05;64862.97;5093671;28;20239;-57
2023/05/13 10:02:29;;;;;;;7.18;4.70;;;;;;;18.76;57.93;64948.03;5093516;28;20180;-59
2023/05/13 10:04:55;;;;;;;4.55;4.15;;;;;;;19.23;60.80;64999.34;5093408;28;20212;-58
2023/05/13 10:07:24;;;;;;;5.72;4.55;;;;;;;19.49;57.24;65025.53;5093551;28;20245;-59
2023/05/13 10:10:09;;;;;;;6.63;4.63;;;;;;;19.66;56.08;65044.28;5093636;28;20216;-58
2023/05/13 10:12:36;;;;;;;5.35;4.18;;;;;;;19.65;55.04;65043.19;5093709;28;20188;-58
2023/05/13 10:15:04;;;;;;;8.52;5.15;;;;;;;19.62;53.03;65036.75;5093396;28;20211;-58
2023/05/13 10:17:31;;;;;;;6.05;4.25;;;;;;;19.93;53.03;65074.13;5093246;28;20192;-59
2023/05/13 10:19:57;;;;;;;6.93;5.32;;;;;;;19.67;52.19;65044.84;5093330;28;20264;-58
2023/05/13 10:22:28;;;;;;;5.78;4.40;;;;;;;19.37;51.96;65012.28;5093453;28;20538;-58
2023/05/13 10:24:58;;;;;;;6.10;4.35;;;;;;;19.13;52.68;64986.31;5093113;28;20212;-58
2023/05/13 10:27:27;;;;;;;6.68;4.50;;;;;;;19.27;53.55;65001.75;5093326;28;20602;-58
2023/05/13 10:29:54;;;;;;;8.88;5.40;;;;;;;20.00;54.65;65079.28;5093274;28;20247;-58
2023/05/13 10:35:15;;;;;;;5.68;4.15;;;;;;;19.86;52.26;65066.38;5093486;28;20230;-58
2023/05/13 10:38:05;;;;;;;5.57;4.43;;;;;;;20.51;52.67;65135.09;5093258;28;20660;-59
2023/05/13 10:40:39;;;;;;;10.23;6.78;;;;;;;19.59;53.01;65038.56;5092868;28;20239;-58
2023/05/13 10:43:20;;;;;;;9.40;4.80;;;;;;;19.24;52.93;65000.47;5093130;28;20213;-57
2023/05/13 10:45:50;;;;;;;6.90;5.20;;;;;;;18.92;54.07;64963.16;5093054;28;20200;-58
2023/05/13 10:48:17;;;;;;;7.18;4.82;;;;;;;18.48;55.14;64914.06;5092739;28;20306;-58
2023/05/13 10:50:54;;;;;;;6.20;4.93;;;;;;;17.78;57.53;64840.50;5092763;28;20252;-57
2023/05/13 10:53:23;;;;;;;17.42;11.27;;;;;;;17.95;57.79;64856.69;5093084;28;20227;-58
2023/05/13 10:55:52;;;;;;;8.70;5.57;;;;;;;17.54;57.95;64808.94;5092701;28;20188;-58
2023/05/13 10:58:21;;;;;;;8.77;5.15;;;;;;;17.72;59.99;64830.78;5093036;28;20199;-57
2023/05/13 11:00:46;;;;;;;6.03;4.88;;;;;;;17.64;58.58;64825.06;5092640;28;20196;-58
2023/05/13 11:03:18;;;;;;;7.72;5.22;;;;;;;17.47;57.86;64801.75;5091382;28;20208;-58
2023/05/13 11:06:14;;;;;;;8.82;4.70;;;;;;;17.23;58.32;64777.84;5092016;28;20219;-61
2023/05/13 11:08:49;;;;;;;5.18;3.90;;;;;;;17.16;59.96;64772.16;5092590;28;20211;-62
2023/05/13 11:11:21;;;;;;;6.03;4.53;;;;;;;17.39;61.67;64795.47;5092580;28;20219;-58
2023/05/13 11:13:50;;;;;;;8.80;4.55;;;;;;;17.45;62.18;64804.66;5092304;28;20732;-58
2023/05/13 11:16:17;;;;;;;7.32;4.38;;;;;;;17.68;63.16;64826.91;5092476;28;20192;-59
2023/05/13 11:18:43;;;;;;;4.53;3.92;;;;;;;17.79;62.74;64838.50;5091130;28;20207;-58
2023/05/13 11:21:08;;;;;;;6.63;4.03;;;;;;;17.94;61.90;64855.56;5092286;28;20669;-58
2023/05/13 11:23:50;;;;;;;8.70;4.47;;;;;;;18.74;60.04;64942.72;5092587;28;20245;-59
2023/05/13 11:26:16;;;;;;;8.98;4.47;;;;;;;19.34;56.78;65008.97;5092302;28;20203;-58
2023/05/13 11:29:03;;;;;;;5.88;4.05;;;;;;;19.93;54.63;65073.56;5092333;28;20208;-62
2023/05/13 11:31:46;;;;;;;5.10;3.97;;;;;;;20.54;57.51;65140.44;5092315;28;20184;-59
2023/05/13 11:34:11;;;;;;;7.18;4.57;;;;;;;20.06;54.27;65088.47;5092212;28;20204;-61
2023/05/13 11:36:43;;;;;;;4.45;4.00;;;;;;;20.04;52.28;65083.16;5092174;28;20200;-60
2023/05/13 11:39:12;;;;;;;6.22;3.90;;;;;;;20.80;51.28;65166.59;5092576;28;20203;-58